createdAt,value
2018-05-18T00:00:52.632Z,33.99
2018-05-18T00:03:19.269Z,34.03
2018-05-18T00:05:45.914Z,34.08
2018-05-18T00:08:12.596Z,34.13
2018-05-18T00:10:39.237Z,34.15
2018-05-18T00:13:05.900Z,34.23
2018-05-18T00:15:32.601Z,34.26
2018-05-18T00:17:59.201Z,34.25
2018-05-18T00:20:28.796Z,34.28
2018-05-18T00:22:58.629Z,34.37
2018-05-18T00:25:25.272Z,34.40
2018-05-18T00:27:56.349Z,34.43
2018-05-18T00:30:21.450Z,34.48
2018-05-18T00:32:48.135Z,34.53
2018-05-18T00:35:14.813Z,34.49
2018-05-18T00:37:41.546Z,34.54
2018-05-18T00:40:11.350Z,34.62
2018-05-18T00:42:40.919Z,34.72
2018-05-18T00:45:07.563Z,34.77
2018-05-18T00:47:34.209Z,34.75
2018-05-18T00:50:00.843Z,34.79
2018-05-18T00:52:28.971Z,34.80
2018-05-18T00:54:54.141Z,34.81
2018-05-18T00:57:22.854Z,34.88
2018-05-18T00:59:47.460Z,34.88
2018-05-18T01:02:14.162Z,34.96
2018-05-18T01:04:40.800Z,35.01
2018-05-18T01:07:07.432Z,35.08
2018-05-18T01:09:34.078Z,35.10
2018-05-18T01:12:00.712Z,35.19
2018-05-18T01:14:30.308Z,35.24
2018-05-18T01:16:59.963Z,35.29
2018-05-18T01:19:28.008Z,35.34
2018-05-18T01:21:56.098Z,35.41
2018-05-18T01:24:22.783Z,35.40
2018-05-18T01:26:49.418Z,35.50
2018-05-18T01:29:16.138Z,35.48
2018-05-18T01:31:50.840Z,35.50
2018-05-18T01:34:17.438Z,35.54
2018-05-18T01:36:45.448Z,35.59
2018-05-18T01:39:10.761Z,35.68
2018-05-18T01:41:37.411Z,35.68
2018-05-18T01:44:04.044Z,35.72
2018-05-18T01:46:30.696Z,35.75
2018-05-18T01:48:58.762Z,35.81
2018-05-18T01:51:24.005Z,35.84
2018-05-18T01:53:51.893Z,35.81
2018-05-18T01:56:17.274Z,35.90
2018-05-18T01:58:46.894Z,35.89
2018-05-18T02:01:13.526Z,35.97
2018-05-18T02:03:41.789Z,36.04
2018-05-18T02:06:10.980Z,36.11
2018-05-18T02:08:39.262Z,36.08
2018-05-18T02:11:05.944Z,36.08
2018-05-18T02:13:35.780Z,36.14
2018-05-18T02:16:02.436Z,36.26
2018-05-18T02:18:29.115Z,36.34
2018-05-18T02:20:55.746Z,36.29
2018-05-18T02:23:22.432Z,36.35
2018-05-18T02:25:51.534Z,36.38
2018-05-18T02:28:18.217Z,36.45
2018-05-18T02:30:44.857Z,36.51
2018-05-18T02:33:13.537Z,36.40
2018-05-18T02:35:41.533Z,36.52
2018-05-18T02:38:09.042Z,36.61
2018-05-18T02:40:38.766Z,36.60
2018-05-18T02:43:08.834Z,36.61
2018-05-18T02:45:38.222Z,36.65
2018-05-18T02:48:04.930Z,36.75
2018-05-18T02:50:32.935Z,36.71
2018-05-18T02:52:58.228Z,36.77
2018-05-18T02:55:26.692Z,36.82
2018-05-18T02:57:51.539Z,36.79
2018-05-18T03:00:18.257Z,36.83
2018-05-18T03:02:48.524Z,36.89
2018-05-18T03:05:19.411Z,36.81
2018-05-18T03:07:53.099Z,36.92
2018-05-18T03:10:22.671Z,36.92
2018-05-18T03:12:50.664Z,37.08
2018-05-18T03:15:15.992Z,36.91
2018-05-18T03:17:42.616Z,37.54
2018-05-18T03:20:09.263Z,37.84
2018-05-18T03:22:37.750Z,37.97
2018-05-18T03:25:05.772Z,38.18
2018-05-18T03:27:33.189Z,38.24
2018-05-18T03:29:57.713Z,38.08
2018-05-18T03:32:24.358Z,38.12
2018-05-18T03:34:51.057Z,38.10
2018-05-18T03:37:21.909Z,38.38
2018-05-18T03:39:48.753Z,38.59
2018-05-18T03:42:16.239Z,38.37
2018-05-18T03:44:42.872Z,38.39
2018-05-18T03:47:14.851Z,38.49
2018-05-18T03:49:41.163Z,38.59
2018-05-18T03:52:07.839Z,38.79
2018-05-18T03:54:34.474Z,38.48
2018-05-18T03:57:03.486Z,38.26
2018-05-18T03:59:32.229Z,38.21
2018-05-18T04:01:58.914Z,38.01
2018-05-18T04:04:25.591Z,37.87
2018-05-18T04:06:55.433Z,37.50
2018-05-18T04:09:22.071Z,37.23
2018-05-18T04:11:48.770Z,37.17
2018-05-18T04:14:15.406Z,37.08
2018-05-18T04:16:43.405Z,37.07
2018-05-18T04:19:10.095Z,36.84
2018-05-18T04:21:37.705Z,36.50
2018-05-18T04:24:04.353Z,36.63
2018-05-18T04:26:31.051Z,36.56
2018-05-18T04:28:59.087Z,36.43
2018-05-18T04:31:28.459Z,36.47
2018-05-18T04:33:53.650Z,36.42
2018-05-18T04:36:20.352Z,36.38
2018-05-18T04:38:48.031Z,36.39
2018-05-18T04:41:13.621Z,36.44
2018-05-18T04:43:43.087Z,36.45
2018-05-18T04:46:11.034Z,36.48
2018-05-18T04:48:39.120Z,36.43
2018-05-18T04:51:05.822Z,36.50
2018-05-18T04:53:32.446Z,36.54
2018-05-18T04:56:02.367Z,36.32
2018-05-18T04:58:29.043Z,36.42
2018-05-18T05:01:06.965Z,36.35
2018-05-18T05:03:34.551Z,36.38
2018-05-18T05:06:07.514Z,36.13
2018-05-18T05:08:36.461Z,36.10
2018-05-18T05:11:05.975Z,36.04
2018-05-18T05:13:36.797Z,35.94
2018-05-18T05:16:02.368Z,35.88
2018-05-18T05:18:29.096Z,35.93
2018-05-18T05:20:55.736Z,35.73
2018-05-18T05:23:22.376Z,35.98
2018-05-18T05:25:49.024Z,35.98
2018-05-18T05:28:15.712Z,36.04
2018-05-18T05:30:42.313Z,36.16
2018-05-18T05:33:08.949Z,35.97
2018-05-18T05:35:35.598Z,36.25
2018-05-18T05:38:04.959Z,36.03
2018-05-18T05:40:35.382Z,35.89
2018-05-18T05:43:02.351Z,35.88
2018-05-18T05:45:27.198Z,35.79
2018-05-18T05:47:53.826Z,36.34
2018-05-18T05:50:20.499Z,36.45
2018-05-18T05:52:47.127Z,37.86
2018-05-18T05:55:20.172Z,38.34
2018-05-18T05:57:46.811Z,37.85
2018-05-18T06:00:13.476Z,36.45
2018-05-18T06:02:40.134Z,35.93
2018-05-18T06:05:11.447Z,35.60
2018-05-18T06:07:33.414Z,35.54
2018-05-18T06:10:00.052Z,35.40
2018-05-18T06:12:26.707Z,35.25
2018-05-18T06:14:53.362Z,34.69
2018-05-18T06:17:20.021Z,34.58
2018-05-18T06:19:48.675Z,35.17
2018-05-18T06:22:15.335Z,34.18
2018-05-18T06:24:41.978Z,34.35
2018-05-18T06:27:08.619Z,34.48
2018-05-18T06:29:38.165Z,34.41
2018-05-18T06:32:04.810Z,34.29
2018-05-18T06:34:34.167Z,33.86
2018-05-18T06:37:03.906Z,33.87
2018-05-18T06:39:32.508Z,33.82
2018-05-18T06:41:59.169Z,33.84
2018-05-18T06:44:25.916Z,33.81
2018-05-18T06:46:54.713Z,33.83
2018-05-18T06:49:22.732Z,33.45
2018-05-18T06:51:50.047Z,32.55
2018-05-18T06:54:18.040Z,32.62
2018-05-18T06:56:44.455Z,32.88
2018-05-18T06:59:11.063Z,32.72
2018-05-18T07:01:37.765Z,33.42
2018-05-18T07:04:04.638Z,33.44
2018-05-18T07:06:31.207Z,33.56
2018-05-18T07:08:57.901Z,33.69
2018-05-18T07:11:24.579Z,33.32
2018-05-18T07:13:51.210Z,32.85
2018-05-18T07:16:17.858Z,32.97
2018-05-18T07:18:44.497Z,32.57
2018-05-18T07:21:11.145Z,32.92
2018-05-18T07:23:37.794Z,32.82
2018-05-18T07:26:04.471Z,32.62
2018-05-18T07:28:31.167Z,32.64
2018-05-18T07:30:57.775Z,32.75
2018-05-18T07:33:24.421Z,32.75
2018-05-18T07:35:51.078Z,32.56
2018-05-18T07:38:17.741Z,33.13
2018-05-18T07:40:44.345Z,32.96
2018-05-18T07:43:10.996Z,32.55
2018-05-18T07:45:37.650Z,32.72
2018-05-18T07:48:04.288Z,32.60
2018-05-18T07:50:30.941Z,32.62
2018-05-18T07:52:57.582Z,32.85
2018-05-18T07:55:24.340Z,32.42
2018-05-18T07:57:56.538Z,32.46
2018-05-18T08:00:23.220Z,32.43
2018-05-18T08:02:49.912Z,32.22
2018-05-18T08:05:16.546Z,32.55
2018-05-18T08:07:43.274Z,32.40
2018-05-18T08:10:09.884Z,32.32
2018-05-18T08:12:36.539Z,32.27
2018-05-18T08:15:03.253Z,31.98
2018-05-18T08:17:29.998Z,31.86
2018-05-18T08:19:56.686Z,32.81
2018-05-18T08:22:23.326Z,33.20
2018-05-18T08:24:49.977Z,32.98
2018-05-18T08:27:16.639Z,33.23
2018-05-18T08:29:43.283Z,34.25
2018-05-18T08:32:09.977Z,35.15
2018-05-18T08:34:36.624Z,35.30
2018-05-18T08:37:09.730Z,34.80
2018-05-18T08:39:36.386Z,34.36
2018-05-18T08:42:03.124Z,33.83
2018-05-18T08:44:29.824Z,33.95
2018-05-18T08:46:56.384Z,34.03
2018-05-18T08:49:23.040Z,34.08
2018-05-18T08:51:49.707Z,33.85
2018-05-18T08:54:16.447Z,33.84
2018-05-18T08:56:43.146Z,33.52
2018-05-18T08:59:09.830Z,33.52
2018-05-18T09:01:36.546Z,33.50
2018-05-18T09:04:03.179Z,33.58
2018-05-18T09:06:29.828Z,33.62
2018-05-18T09:08:56.559Z,33.61
2018-05-18T09:11:23.114Z,33.43
2018-05-18T09:13:49.757Z,33.35
2018-05-18T09:16:16.407Z,33.52
2018-05-18T09:18:43.174Z,33.30
2018-05-18T09:21:09.981Z,33.40
2018-05-18T09:23:36.630Z,33.18
2018-05-18T09:26:03.261Z,33.08
2018-05-18T09:28:29.995Z,32.81
2018-05-18T09:30:56.677Z,33.31
2018-05-18T09:33:23.373Z,33.30
2018-05-18T09:35:50.001Z,33.18
2018-05-18T09:38:16.635Z,33.19
2018-05-18T09:40:43.320Z,33.14
2018-05-18T09:43:09.953Z,33.31
2018-05-18T09:45:36.597Z,33.11
2018-05-18T09:48:03.282Z,33.28
2018-05-18T09:50:30.096Z,32.98
2018-05-18T09:52:56.701Z,32.88
2018-05-18T09:55:23.553Z,33.07
2018-05-18T09:57:50.046Z,33.03
2018-05-18T10:00:16.702Z,32.93
2018-05-18T10:02:43.400Z,32.84
2018-05-18T10:05:10.046Z,32.89
2018-05-18T10:07:36.745Z,32.62
2018-05-18T10:10:03.389Z,32.76
2018-05-18T10:12:30.175Z,32.65
2018-05-18T10:14:56.647Z,32.48
2018-05-18T10:17:23.320Z,32.46
2018-05-18T10:19:49.968Z,32.74
2018-05-18T10:22:16.655Z,32.88
2018-05-18T10:24:43.325Z,33.15
2018-05-18T10:27:09.984Z,33.15
2018-05-18T10:29:36.630Z,33.39
2018-05-18T10:32:04.380Z,33.87
2018-05-18T10:34:31.065Z,34.70
2018-05-18T10:36:57.705Z,34.86
2018-05-18T10:39:24.408Z,34.43
2018-05-18T10:41:51.099Z,34.46
2018-05-18T10:44:17.739Z,34.83
2018-05-18T10:46:44.380Z,35.40
2018-05-18T10:49:11.056Z,36.06
2018-05-18T10:51:37.700Z,35.15
2018-05-18T10:54:04.434Z,34.76
2018-05-18T10:56:31.137Z,34.67
2018-05-18T10:58:57.794Z,35.68
2018-05-18T11:01:24.447Z,35.42
2018-05-18T11:03:51.175Z,34.93
2018-05-18T11:06:17.871Z,34.85
2018-05-18T11:08:44.514Z,35.28
2018-05-18T11:11:11.210Z,35.64
2018-05-18T11:13:37.850Z,36.10
2018-05-18T11:16:04.538Z,35.77
2018-05-18T11:18:31.192Z,35.29
2018-05-18T11:20:57.827Z,35.11
2018-05-18T11:23:24.537Z,35.49
2018-05-18T11:25:51.377Z,36.05
2018-05-18T11:28:17.996Z,35.27
2018-05-18T11:30:44.682Z,35.08
2018-05-18T11:33:11.552Z,35.29
2018-05-18T11:35:38.287Z,35.50
2018-05-18T11:38:04.962Z,35.65
2018-05-18T11:40:32.887Z,35.94
2018-05-18T11:42:58.226Z,36.38
2018-05-18T11:45:24.861Z,35.64
2018-05-18T11:47:51.499Z,35.26
2018-05-18T11:50:18.210Z,35.02
2018-05-18T11:52:44.851Z,35.30
2018-05-18T11:55:11.551Z,35.48
2018-05-18T11:57:38.198Z,35.83
2018-05-18T12:00:04.836Z,36.16
2018-05-18T12:02:31.521Z,35.28
2018-05-18T12:05:01.123Z,35.43
2018-05-18T12:07:27.814Z,34.65
2018-05-18T12:09:54.423Z,34.53
2018-05-18T12:12:21.073Z,34.42
2018-05-18T12:14:47.899Z,35.42
2018-05-18T12:17:17.868Z,35.72
2018-05-18T12:19:44.619Z,35.98
2018-05-18T12:22:11.266Z,35.22
2018-05-18T12:24:37.909Z,35.25
2018-05-18T12:27:04.553Z,35.11
2018-05-18T12:29:31.235Z,34.81
2018-05-18T12:31:57.871Z,34.53
2018-05-18T12:34:24.518Z,35.38
2018-05-18T12:36:51.190Z,35.52
2018-05-18T12:39:17.823Z,35.97
2018-05-18T12:41:44.579Z,35.74
2018-05-18T12:44:11.250Z,35.43
2018-05-18T12:46:37.934Z,34.79
2018-05-18T12:49:04.546Z,35.07
2018-05-18T12:51:31.357Z,34.74
2018-05-18T12:53:57.972Z,35.24
2018-05-18T12:56:24.698Z,35.65
2018-05-18T12:58:51.297Z,36.17
2018-05-18T13:01:17.940Z,35.65
2018-05-18T13:03:44.581Z,35.26
2018-05-18T13:06:11.262Z,35.37
2018-05-18T13:08:37.953Z,35.60
2018-05-18T13:11:04.589Z,35.90
2018-05-18T13:13:31.226Z,36.01
2018-05-18T13:15:57.902Z,36.28
2018-05-18T13:18:24.520Z,36.49
2018-05-18T13:20:51.308Z,36.23
2018-05-18T13:23:17.909Z,36.68
2018-05-18T13:25:44.644Z,36.51
2018-05-18T13:28:11.293Z,35.70
2018-05-18T13:30:38.052Z,35.32
2018-05-18T13:33:04.674Z,35.25
2018-05-18T13:35:31.310Z,35.31
2018-05-18T13:37:58.015Z,34.80
2018-05-18T13:40:24.646Z,35.08
2018-05-18T13:42:51.353Z,34.62
2018-05-18T13:45:18.052Z,34.58
2018-05-18T13:47:44.691Z,34.85
2018-05-18T13:50:11.346Z,34.70
2018-05-18T13:52:38.067Z,34.50
2018-05-18T13:55:04.736Z,34.53
2018-05-18T13:57:31.383Z,34.20
2018-05-18T13:59:58.049Z,34.35
2018-05-18T14:02:24.719Z,34.23
2018-05-18T14:04:51.362Z,35.00
2018-05-18T14:07:17.995Z,35.43
2018-05-18T14:09:44.676Z,36.01
2018-05-18T14:12:11.326Z,35.87
2018-05-18T14:14:38.011Z,35.22
2018-05-18T14:17:04.668Z,35.34
2018-05-18T14:19:31.311Z,34.73
2018-05-18T14:21:57.956Z,34.97
2018-05-18T14:24:24.642Z,34.30
2018-05-18T14:26:51.330Z,34.36
2018-05-18T14:29:20.881Z,34.33
2018-05-18T14:31:47.540Z,34.24
2018-05-18T14:34:14.150Z,33.96
2018-05-18T14:36:40.822Z,34.67
2018-05-18T14:39:07.504Z,35.39
2018-05-18T14:41:34.154Z,35.26
2018-05-18T14:44:00.891Z,36.42
2018-05-18T14:46:27.490Z,35.85
2018-05-18T14:48:54.168Z,35.41
2018-05-18T14:51:20.773Z,35.16
2018-05-18T14:53:47.471Z,34.91
2018-05-18T14:56:14.119Z,35.65
2018-05-18T14:58:40.790Z,36.25
2018-05-18T15:01:07.508Z,35.89
2018-05-18T15:03:34.235Z,35.92
2018-05-18T15:06:00.848Z,36.86
2018-05-18T15:08:27.483Z,36.98
2018-05-18T15:10:54.174Z,36.51
2018-05-18T15:13:20.796Z,36.00
2018-05-18T15:15:47.480Z,35.84
2018-05-18T15:18:14.121Z,35.68
2018-05-18T15:20:40.805Z,35.51
2018-05-18T15:23:07.469Z,35.57
2018-05-18T15:25:34.137Z,35.51
2018-05-18T15:28:00.771Z,35.67
2018-05-18T15:30:27.427Z,35.30
2018-05-18T15:32:54.078Z,36.33
2018-05-18T15:35:20.751Z,36.95
2018-05-18T15:37:47.448Z,36.88
2018-05-18T15:40:14.092Z,36.38
2018-05-18T15:42:40.799Z,36.04
2018-05-18T15:45:07.412Z,35.82
2018-05-18T15:47:34.101Z,35.63
2018-05-18T15:50:00.777Z,35.53
2018-05-18T15:52:27.463Z,35.87
2018-05-18T15:54:54.159Z,36.57
2018-05-18T15:57:20.780Z,36.30
2018-05-18T15:59:47.405Z,36.92
2018-05-18T16:02:14.089Z,36.75
2018-05-18T16:04:40.818Z,37.22
2018-05-18T16:07:07.457Z,37.91
2018-05-18T16:09:34.152Z,37.96
2018-05-18T16:12:00.831Z,38.36
2018-05-18T16:14:27.467Z,38.53
2018-05-18T16:16:54.100Z,38.08
2018-05-18T16:19:20.851Z,37.87
2018-05-18T16:21:47.589Z,37.73
2018-05-18T16:24:14.193Z,37.67
2018-05-18T16:26:40.905Z,37.52
2018-05-18T16:29:07.501Z,37.37
2018-05-18T16:31:34.137Z,37.42
2018-05-18T16:34:00.827Z,37.41
2018-05-18T16:36:27.463Z,37.49
2018-05-18T16:38:54.107Z,37.49
2018-05-18T16:41:20.746Z,37.33
2018-05-18T16:43:47.379Z,37.43
2018-05-18T16:46:14.062Z,37.30
2018-05-18T16:48:40.697Z,37.16
2018-05-18T16:51:07.393Z,36.87
2018-05-18T16:53:34.027Z,37.28
2018-05-18T16:56:00.661Z,38.05
2018-05-18T16:58:27.381Z,39.22
2018-05-18T17:00:53.978Z,38.68
2018-05-18T17:03:20.625Z,37.94
2018-05-18T17:05:47.317Z,37.68
2018-05-18T17:08:14.075Z,37.23
2018-05-18T17:10:40.710Z,37.06
2018-05-18T17:13:07.350Z,36.65
2018-05-18T17:15:33.995Z,36.42
2018-05-18T17:18:00.671Z,36.68
2018-05-18T17:20:27.351Z,36.48
2018-05-18T17:22:53.983Z,36.27
2018-05-18T17:25:20.662Z,36.39
2018-05-18T17:27:47.338Z,36.19
2018-05-18T17:30:14.160Z,36.28
2018-05-18T17:32:40.789Z,36.21
2018-05-18T17:35:07.428Z,36.16
2018-05-18T17:37:34.122Z,36.08
2018-05-18T17:40:00.762Z,36.09
2018-05-18T17:42:27.426Z,35.99
2018-05-18T17:44:54.039Z,36.03
2018-05-18T17:47:20.675Z,35.93
2018-05-18T17:49:47.322Z,35.78
2018-05-18T17:52:13.959Z,35.61
2018-05-18T17:54:40.604Z,35.65
2018-05-18T17:57:07.250Z,35.81
2018-05-18T17:59:33.889Z,35.95
2018-05-18T18:02:00.533Z,36.17
2018-05-18T18:04:27.166Z,36.31
2018-05-18T18:06:53.810Z,36.42
2018-05-18T18:09:20.527Z,36.39
2018-05-18T18:11:47.163Z,36.64
2018-05-18T18:14:13.806Z,36.73
2018-05-18T18:16:40.448Z,36.70
2018-05-18T18:19:07.125Z,36.71
2018-05-18T18:21:33.720Z,36.86
2018-05-18T18:24:00.361Z,37.02
2018-05-18T18:26:27.008Z,37.09
2018-05-18T18:28:53.645Z,37.27
2018-05-18T18:31:20.286Z,37.40
2018-05-18T18:33:46.920Z,37.55
2018-05-18T18:36:13.568Z,37.68
2018-05-18T18:38:40.195Z,37.76
2018-05-18T18:41:06.843Z,37.95
2018-05-18T18:43:33.481Z,37.96
2018-05-18T18:46:00.134Z,37.94
2018-05-18T18:48:26.804Z,38.20
2018-05-18T18:50:53.416Z,38.30
2018-05-18T18:53:20.057Z,38.37
2018-05-18T18:55:46.720Z,38.43
2018-05-18T18:58:13.324Z,38.64
2018-05-18T19:00:39.963Z,38.61
2018-05-18T19:03:06.632Z,38.86
2018-05-18T19:05:33.265Z,38.64
2018-05-18T19:07:59.927Z,38.81
2018-05-18T19:10:26.531Z,38.83
2018-05-18T19:12:53.177Z,39.04
2018-05-18T19:15:19.824Z,39.01
2018-05-18T19:17:46.452Z,39.23
2018-05-18T19:20:13.158Z,39.21
2018-05-18T19:22:39.726Z,39.26
2018-05-18T19:25:06.375Z,39.11
2018-05-18T19:27:33.008Z,39.18
2018-05-18T19:29:59.642Z,39.12
2018-05-18T19:32:26.294Z,39.20
2018-05-18T19:34:53.027Z,39.10
2018-05-18T19:37:19.677Z,39.05
2018-05-18T19:39:46.315Z,38.99
2018-05-18T19:42:12.957Z,38.96
2018-05-18T19:44:39.638Z,38.93
2018-05-18T19:47:06.272Z,38.89
2018-05-18T19:49:32.901Z,38.84
2018-05-18T19:51:59.549Z,38.85
2018-05-18T19:54:26.184Z,38.77
2018-05-18T19:56:52.821Z,38.73
2018-05-18T19:59:19.461Z,38.68
2018-05-18T20:01:46.150Z,38.72
2018-05-18T20:04:12.782Z,38.67
2018-05-18T20:06:39.428Z,38.54
2018-05-18T20:09:06.091Z,38.54
2018-05-18T20:11:32.733Z,38.58
2018-05-18T20:13:59.369Z,38.66
2018-05-18T20:16:26.013Z,38.71
2018-05-18T20:18:52.680Z,38.71
2018-05-18T20:21:19.293Z,38.75
2018-05-18T20:23:45.926Z,38.77
2018-05-18T20:26:12.622Z,38.85
2018-05-18T20:28:39.267Z,38.90
2018-05-18T20:31:05.904Z,38.96
2018-05-18T20:33:32.550Z,38.96
2018-05-18T20:35:59.185Z,38.92
2018-05-18T20:38:25.865Z,38.98
2018-05-18T20:40:52.536Z,39.03
2018-05-18T20:43:19.183Z,39.03
2018-05-18T20:45:45.798Z,39.10
2018-05-18T20:48:12.436Z,39.21
2018-05-18T20:50:39.079Z,39.18
2018-05-18T20:53:05.731Z,39.21
2018-05-18T20:55:32.372Z,39.28
2018-05-18T20:57:59.018Z,39.36
2018-05-18T21:00:25.702Z,39.32
2018-05-18T21:02:52.341Z,39.28
2018-05-18T21:05:18.981Z,39.34
2018-05-18T21:07:45.631Z,39.49
2018-05-18T21:10:12.268Z,39.49
2018-05-18T21:12:38.903Z,39.53
2018-05-18T21:15:05.551Z,39.60
2018-05-18T21:17:32.186Z,39.63
2018-05-18T21:19:58.831Z,39.70
2018-05-18T21:22:25.464Z,39.81
2018-05-18T21:24:52.111Z,39.88
2018-05-18T21:27:18.756Z,40.15
2018-05-18T21:29:45.394Z,40.12
2018-05-18T21:32:12.048Z,40.24
2018-05-18T21:34:38.683Z,40.41
2018-05-18T21:37:05.323Z,40.42
2018-05-18T21:39:31.959Z,40.54
2018-05-18T21:41:58.599Z,40.66
2018-05-18T21:44:25.242Z,40.73
2018-05-18T21:46:51.879Z,40.74
2018-05-18T21:49:18.524Z,40.81
2018-05-18T21:51:45.162Z,40.96
2018-05-18T21:54:11.806Z,40.96
2018-05-18T21:56:38.496Z,40.92
2018-05-18T21:59:05.127Z,41.00
2018-05-18T22:01:31.799Z,41.05
2018-05-18T22:03:58.428Z,41.04
2018-05-18T22:06:25.070Z,41.04
2018-05-18T22:08:51.706Z,41.00
2018-05-18T22:11:18.428Z,41.05
2018-05-18T22:13:45.057Z,41.09
2018-05-18T22:16:11.699Z,41.12
2018-05-18T22:18:38.341Z,41.09
2018-05-18T22:21:04.977Z,41.12
2018-05-18T22:23:31.700Z,41.12
2018-05-18T22:25:58.303Z,41.16
2018-05-18T22:28:24.933Z,41.10
2018-05-18T22:30:51.656Z,41.13
2018-05-18T22:33:18.245Z,41.06
2018-05-18T22:35:44.903Z,41.12
2018-05-18T22:38:11.590Z,41.16
2018-05-18T22:40:38.233Z,41.11
2018-05-18T22:43:04.870Z,41.13
2018-05-18T22:45:31.502Z,41.16
2018-05-18T22:47:58.142Z,41.11
2018-05-18T22:50:24.776Z,41.15
2018-05-18T22:52:51.421Z,41.17
2018-05-18T22:55:18.059Z,41.17
2018-05-18T22:57:44.694Z,41.24
2018-05-18T23:00:11.326Z,41.24
2018-05-18T23:02:37.969Z,41.32
2018-05-18T23:05:04.602Z,41.23
2018-05-18T23:07:31.244Z,41.26
2018-05-18T23:09:57.875Z,41.30
2018-05-18T23:12:24.556Z,41.30
2018-05-18T23:14:51.198Z,41.33
2018-05-18T23:17:17.873Z,41.37
2018-05-18T23:19:44.523Z,41.37
2018-05-18T23:22:11.207Z,41.39
2018-05-18T23:24:37.840Z,41.31
2018-05-18T23:27:04.522Z,41.35
2018-05-18T23:29:31.158Z,41.40
2018-05-18T23:31:57.831Z,41.42
2018-05-18T23:34:24.434Z,41.36
2018-05-18T23:36:51.067Z,41.49
2018-05-18T23:39:17.761Z,41.47
2018-05-18T23:41:44.396Z,41.45
2018-05-18T23:44:11.080Z,41.47
2018-05-18T23:46:37.723Z,41.43
2018-05-18T23:49:04.362Z,41.46
2018-05-18T23:51:30.998Z,41.41
2018-05-18T23:53:57.674Z,41.42
2018-05-18T23:56:24.311Z,41.39
2018-05-18T23:58:51.001Z,41.37
